Terminal Aerodrome Forecast
Issued by NWS

Home | Current Version | Previous Version | Text Only | Print | Product List | Glossary On
Versions: 1 2 3 4 5 6 7 8 9 10 11 12 13 14 15 16 17 18 19
000
FTUS43 KMPX 271100 AAA
TAFRNH
TAF AMD
KRNH 271159Z 2712/2812 32005KT P6SM SKC
     FM272200 VRB03KT P6SM SCT150
     FM280400 16005KT P6SM BKN080 OVC120
     FM280900 14012KT 4SM -SN SCT015 OVC035
      TEMPO 2809/2812 1 1/2SM -SN BKN020=

USA.gov is the U.S. government's official web portal to all federal, state and local government web resources and services.